Time;durP1;ratioP1;P1;durP2;ratioP2;P2;SDS_P1;SDS_P2;PMS_P1;PMS_P2;Temp;Humidity;BMP_temperature;BMP_pressure;BME280_temperature;BME280_humidity;BME280_pressure;Samples;Min_cycle;Max_cycle;Signal;HPM_P1;HPM_P2
2022/12/24 04:00:41;;;;;;;5.07;2.73;;;12.00;82.00;;;;;;6052680;23;20430;-68
2022/12/24 04:03:07;;;;;;;4.10;1.53;;;11.90;81.70;;;;;;5013023;28;20456;-68
2022/12/24 04:05:34;;;;;;;3.07;1.87;;;11.70;82.10;;;;;;5014423;28;20515;-68
2022/12/24 04:08:00;;;;;;;3.33;1.70;;;11.80;82.50;;;;;;5014365;28;20526;-70
2022/12/24 04:10:27;;;;;;;5.37;2.93;;;11.90;82.10;;;;;;5014051;28;20476;-70
2022/12/24 04:12:54;;;;;;;4.63;1.77;;;12.00;82.40;;;;;;5014088;28;20452;-69
2022/12/24 04:15:20;;;;;;;4.20;1.67;;;12.00;82.10;;;;;;5015005;28;20444;-69
2022/12/24 04:17:48;;;;;;;3.80;1.50;;;12.00;82.10;;;;;;5014756;28;20457;-69
2022/12/24 04:20:15;;;;;;;5.93;2.23;;;12.10;82.30;;;;;;5013920;28;21005;-70
2022/12/24 04:22:42;;;;;;;4.43;1.90;;;12.10;81.70;;;;;;5014150;28;20464;-70
2022/12/24 04:25:09;;;;;;;7.40;1.67;;;11.90;82.00;;;;;;5014068;28;20507;-69
2022/12/24 04:27:36;;;;;;;3.23;1.53;;;11.90;82.40;;;;;;5014088;28;20567;-68
2022/12/24 04:30:03;;;;;;;4.40;1.67;;;11.90;82.50;;;;;;5014042;28;20558;-70
2022/12/24 04:32:30;;;;;;;3.07;1.83;;;12.00;82.40;;;;;;5013884;28;20472;-70
2022/12/24 04:34:58;;;;;;;2.93;1.50;;;12.00;82.50;;;;;;5013945;28;20515;-71
2022/12/24 04:37:24;;;;;;;4.83;1.70;;;12.10;82.20;;;;;;5013638;28;20946;-69
2022/12/24 04:39:51;;;;;;;6.53;2.80;;;12.00;82.40;;;;;;5013827;28;20445;-70
2022/12/24 04:42:18;;;;;;;5.77;1.70;;;12.10;81.90;;;;;;5013739;28;20519;-69
2022/12/24 04:44:44;;;;;;;4.00;1.67;;;12.10;82.10;;;;;;5013757;28;20444;-70
2022/12/24 04:47:11;;;;;;;2.50;1.60;;;12.10;81.70;;;;;;5013806;28;20511;-70
2022/12/24 04:49:38;;;;;;;3.90;1.70;;;12.20;81.50;;;;;;5013619;28;20507;-69
2022/12/24 04:52:06;;;;;;;3.27;1.83;;;12.20;81.40;;;;;;5013656;28;20468;-68
2022/12/24 04:54:32;;;;;;;3.30;1.67;;;12.10;81.50;;;;;;5013625;28;20506;-69
2022/12/24 04:56:59;;;;;;;6.00;2.43;;;12.10;81.40;;;;;;5013638;28;20445;-69
2022/12/24 04:59:26;;;;;;;5.53;2.03;;;12.00;81.50;;;;;;5013281;28;20448;-69
2022/12/24 05:01:52;;;;;;;4.10;2.17;;;12.00;82.10;;;;;;5013014;28;20905;-68
2022/12/24 05:04:19;;;;;;;5.03;2.20;;;12.00;81.70;;;;;;5013521;28;20461;-69
2022/12/24 05:06:46;;;;;;;2.90;1.37;;;11.80;81.30;;;;;;5013533;28;20448;-68
2022/12/24 05:09:14;;;;;;;4.23;1.77;;;11.60;82.40;;;;;;5013423;28;20488;-68
2022/12/24 05:11:40;;;;;;;3.43;1.60;;;11.60;82.60;;;;;;5013427;28;20464;-69
2022/12/24 05:14:07;;;;;;;2.47;1.80;;;11.60;82.60;;;;;;5013446;28;20461;-68
2022/12/24 05:16:34;;;;;;;2.87;1.70;;;11.50;82.80;;;;;;5013465;28;20448;-68
2022/12/24 05:19:00;;;;;;;3.77;1.90;;;11.50;82.80;;;;;;5013098;28;20852;-70
2022/12/24 05:21:27;;;;;;;6.47;1.80;;;11.50;82.80;;;;;;5013440;28;20522;-69
2022/12/24 05:26:42;;;;;;;4.33;1.60;;;11.40;82.90;;;;;;5013463;28;20544;-69
2022/12/24 05:29:11;;;;;;;4.67;2.13;;;11.50;82.90;;;;;;5013249;28;20499;-68
2022/12/24 05:31:39;;;;;;;2.63;1.50;;;11.40;83.40;;;;;;5013212;28;20563;-69
2022/12/24 05:34:06;;;;;;;3.10;1.60;;;11.40;83.10;;;;;;5013289;28;20535;-68
2022/12/24 05:36:33;;;;;;;6.63;2.17;;;11.40;82.70;;;;;;5012904;28;20853;-68
2022/12/24 05:39:00;;;;;;;6.80;2.30;;;11.60;82.60;;;;;;5013145;28;20499;-68
2022/12/24 05:41:26;;;;;;;3.03;1.23;;;11.50;82.40;;;;;;5013123;28;20464;-68
2022/12/24 05:43:55;;;;;;;4.83;1.67;;;11.60;82.50;;;;;;5012885;28;20941;-68
2022/12/24 05:46:23;;;;;;;2.80;1.50;;;11.60;81.50;;;;;;5013156;28;20456;-69
2022/12/24 05:48:51;;;;;;;5.30;2.17;;;11.50;82.40;;;;;;5013099;28;20499;-69
2022/12/24 05:51:21;;;;;;;4.40;2.70;;;11.40;82.10;;;;;;5012950;28;20909;-69
2022/12/24 05:53:49;;;;;;;4.90;2.00;;;11.30;82.30;;;;;;5013112;28;20448;-68
2022/12/24 05:56:18;;;;;;;5.30;1.93;;;11.20;82.70;;;;;;5015168;28;20514;-68
2022/12/24 05:58:45;;;;;;;3.03;2.07;;;11.20;82.90;;;;;;5016743;28;20448;-68
2022/12/24 06:01:14;;;;;;;6.30;2.07;;;11.10;83.00;;;;;;5016398;28;20527;-69
2022/12/24 06:03:40;;;;;;;5.70;1.97;;;11.10;83.70;;;;;;5016402;28;20913;-68
2022/12/24 06:06:10;;;;;;;3.83;1.60;;;11.00;83.90;;;;;;5016608;28;20455;-69
2022/12/24 06:08:39;;;;;;;4.43;1.70;;;11.10;84.00;;;;;;5016510;28;20491;-69
2022/12/24 06:11:09;;;;;;;2.63;1.63;;;11.00;83.70;;;;;;5016365;28;20483;-69
2022/12/24 06:13:36;;;;;;;3.70;1.90;;;11.10;84.00;;;;;;5016472;28;20490;-69
2022/12/24 06:16:05;;;;;;;3.70;2.23;;;11.10;83.80;;;;;;5016363;28;20498;-68
2022/12/24 06:18:35;;;;;;;2.83;1.77;;;11.00;84.00;;;;;;5016059;28;20954;-68
2022/12/24 06:21:02;;;;;;;3.50;1.50;;;11.10;83.80;;;;;;5015912;28;20876;-69
2022/12/24 06:23:31;;;;;;;5.33;2.00;;;11.20;83.60;;;;;;5016271;28;20478;-69
2022/12/24 06:25:59;;;;;;;2.30;1.33;;;11.20;83.10;;;;;;5016199;28;20499;-68
2022/12/24 06:28:27;;;;;;;6.10;1.73;;;11.30;83.20;;;;;;5015885;28;20452;-69
2022/12/24 06:30:54;;;;;;;2.93;1.70;;;11.30;83.10;;;;;;5015943;28;20492;-68
2022/12/24 06:33:20;;;;;;;3.60;1.63;;;11.20;83.80;;;;;;5016065;28;20571;-68
2022/12/24 06:35:48;;;;;;;3.20;1.80;;;11.20;84.60;;;;;;5016076;28;20444;-69
2022/12/24 06:38:16;;;;;;;4.07;2.63;;;11.20;83.80;;;;;;5015976;28;20445;-67
2022/12/24 06:40:44;;;;;;;4.13;2.13;;;11.20;83.10;;;;;;5015894;28;20464;-69
2022/12/24 06:43:12;;;;;;;4.50;1.80;;;11.20;83.40;;;;;;5016227;28;20471;-69
2022/12/24 06:45:38;;;;;;;5.60;2.30;;;11.30;83.10;;;;;;5016339;28;20447;-71
2022/12/24 06:48:06;;;;;;;12.43;2.13;;;11.30;83.20;;;;;;5015491;28;20503;-69
2022/12/24 06:50:33;;;;;;;3.20;2.10;;;11.20;83.00;;;;;;5015615;28;20477;-70
2022/12/24 06:53:01;;;;;;;3.63;1.90;;;11.20;83.70;;;;;;5015788;28;20452;-69
2022/12/24 06:55:28;;;;;;;6.30;2.20;;;11.10;83.50;;;;;;5015693;28;20501;-68
2022/12/24 06:57:55;;;;;;;4.37;1.77;;;11.10;83.40;;;;;;5015623;28;20502;-68
2022/12/24 07:00:22;;;;;;;3.80;2.17;;;11.20;83.50;;;;;;5015282;28;20987;-69
2022/12/24 07:02:49;;;;;;;2.90;1.90;;;11.30;83.20;;;;;;5015248;28;20884;-69
2022/12/24 07:05:16;;;;;;;4.33;2.40;;;11.40;82.90;;;;;;5015530;28;20452;-70
2022/12/24 07:07:45;;;;;;;4.80;1.53;;;11.40;82.00;;;;;;5014364;28;20456;-68
2022/12/24 07:10:14;;;;;;;8.47;2.57;;;11.30;82.70;;;;;;5015367;28;20608;-70
2022/12/24 07:12:41;;;;;;;3.33;1.90;;;11.40;82.00;;;;;;5015337;28;20464;-71
2022/12/24 07:15:09;;;;;;;4.33;1.70;;;11.30;82.40;;;;;;5015304;28;20494;-72
2022/12/24 07:17:36;;;;;;;4.10;1.80;;;11.30;82.60;;;;;;5015287;28;20445;-71
2022/12/24 07:20:03;;;;;;;2.40;1.70;;;11.50;82.50;;;;;;5015190;28;20443;-73
2022/12/24 07:22:30;;;;;;;3.60;1.50;;;11.50;82.20;;;;;;5015099;28;20464;-73
2022/12/24 07:24:56;;;;;;;2.93;2.00;;;11.40;82.30;;;;;;5015195;28;20499;-71
2022/12/24 07:27:24;;;;;;;2.83;1.80;;;11.40;82.90;;;;;;5015160;28;20483;-70
2022/12/24 07:29:51;;;;;;;4.00;1.63;;;11.30;82.40;;;;;;5014974;28;20484;-74
2022/12/24 07:32:19;;;;;;;3.23;2.20;;;11.20;83.00;;;;;;5014947;28;20542;-73
2022/12/24 07:34:45;;;;;;;6.67;1.90;;;11.00;83.60;;;;;;5015100;28;20492;-71
2022/12/24 07:37:13;;;;;;;2.93;1.80;;;11.10;83.90;;;;;;5014634;28;20953;-71
2022/12/24 07:39:40;;;;;;;4.47;2.57;;;11.10;83.70;;;;;;5014755;28;20810;-72
2022/12/24 07:42:07;;;;;;;5.60;3.37;;;11.00;83.40;;;;;;5014759;28;20841;-70
2022/12/24 07:44:35;;;;;;;2.83;2.00;;;10.90;84.00;;;;;;5014806;28;20456;-70
2022/12/24 07:47:02;;;;;;;4.17;2.27;;;11.10;83.40;;;;;;5014400;28;20855;-70
2022/12/24 07:49:29;;;;;;;7.10;2.40;;;11.30;82.90;;;;;;5014721;28;20877;-71
2022/12/24 07:51:55;;;;;;;3.30;2.80;;;11.30;82.50;;;;;;5014553;28;20513;-71
2022/12/24 07:54:22;;;;;;;3.60;2.37;;;11.30;82.50;;;;;;5014661;28;20502;-70
2022/12/24 07:56:49;;;;;;;3.67;1.83;;;11.20;83.00;;;;;;5014599;28;20448;-71
2022/12/24 07:59:16;;;;;;;4.53;1.70;;;11.20;83.00;;;;;;5014220;28;20957;-71
2022/12/24 08:01:44;;;;;;;3.40;2.20;;;11.30;83.20;;;;;;5014144;28;20476;-71
2022/12/24 08:04:11;;;;;;;5.63;2.03;;;11.40;82.40;;;;;;5014435;28;20444;-71
2022/12/24 08:06:37;;;;;;;5.70;2.23;;;11.40;82.50;;;;;;5014104;28;20803;-71
2022/12/24 08:09:04;;;;;;;4.00;2.33;;;11.40;82.40;;;;;;5014321;28;20503;-70
2022/12/24 08:11:31;;;;;;;6.03;1.60;;;11.50;82.30;;;;;;5014123;28;20492;-71
2022/12/24 08:13:58;;;;;;;4.83;2.33;;;11.50;81.70;;;;;;5014318;28;20452;-72
2022/12/24 08:16:24;;;;;;;6.77;2.00;;;11.30;82.20;;;;;;5015900;28;20445;-71
2022/12/24 08:18:52;;;;;;;5.60;1.97;;;11.30;82.60;;;;;;5019280;28;20463;-72
2022/12/24 08:21:19;;;;;;;4.57;2.27;;;11.20;82.80;;;;;;5017284;28;21017;-72
2022/12/24 08:23:46;;;;;;;3.77;1.93;;;11.10;83.30;;;;;;5017783;28;20444;-73
2022/12/24 08:26:13;;;;;;;3.20;1.83;;;11.00;83.40;;;;;;5015577;28;20453;-71
2022/12/24 08:28:40;;;;;;;4.90;1.60;;;11.10;83.70;;;;;;5013965;28;20453;-71
2022/12/24 08:31:06;;;;;;;2.83;2.40;;;11.20;83.70;;;;;;5013844;28;20492;-73
2022/12/24 08:33:33;;;;;;;3.93;2.00;;;11.10;83.20;;;;;;5013987;28;20452;-72
2022/12/24 08:36:02;;;;;;;3.90;2.10;;;11.10;85.00;;;;;;5013905;28;20518;-68
2022/12/24 08:38:29;;;;;;;3.90;2.03;;;11.10;83.40;;;;;;5013839;28;20499;-73
2022/12/24 08:40:56;;;;;;;2.87;1.90;;;11.20;83.20;;;;;;5013760;28;20465;-72
2022/12/24 08:43:25;;;;;;;4.53;2.07;;;11.20;83.10;;;;;;5013802;28;20452;-71
2022/12/24 08:45:53;;;;;;;3.53;1.77;;;11.00;83.10;;;;;;5013768;28;20490;-70
2022/12/24 08:48:20;;;;;;;3.90;1.63;;;11.00;83.60;;;;;;5013776;28;20540;-70
2022/12/24 08:50:46;;;;;;;5.10;3.20;;;11.10;84.00;;;;;;5013572;28;20604;-71
2022/12/24 08:53:14;;;;;;;5.20;2.30;;;11.20;83.40;;;;;;5013346;28;20953;-72
2022/12/24 08:55:41;;;;;;;4.77;2.20;;;11.20;83.10;;;;;;5013645;28;20483;-72
2022/12/24 08:58:08;;;;;;;5.00;2.47;;;11.30;82.90;;;;;;5013606;28;20456;-71
2022/12/24 09:00:34;;;;;;;3.43;1.80;;;11.30;82.30;;;;;;5013419;28;20440;-72
2022/12/24 09:03:01;;;;;;;3.50;1.60;;;11.30;82.30;;;;;;5017366;28;20456;-71
2022/12/24 09:05:28;;;;;;;4.00;2.30;;;11.40;82.00;;;;;;5019116;28;20449;-71
2022/12/24 09:07:55;;;;;;;6.20;2.57;;;11.40;82.40;;;;;;5020046;28;20445;-73
2022/12/24 09:10:24;;;;;;;6.17;2.63;;;11.50;82.00;;;;;;5020037;28;20459;-73
2022/12/24 09:12:50;;;;;;;3.10;1.90;;;11.50;81.20;;;;;;5019857;28;20555;-73
2022/12/24 09:15:17;;;;;;;4.77;2.43;;;11.30;81.70;;;;;;5013414;28;20773;-73
2022/12/24 09:17:44;;;;;;;3.50;2.17;;;11.20;81.90;;;;;;5013413;28;20452;-74
2022/12/24 09:20:11;;;;;;;6.67;2.20;;;11.00;82.80;;;;;;5013446;28;20805;-74
2022/12/24 09:22:39;;;;;;;7.30;2.20;;;11.10;83.50;;;;;;5013998;28;20472;-73
2022/12/24 09:25:07;;;;;;;5.43;2.30;;;11.30;82.90;;;;;;5014192;28;20519;-74
2022/12/24 09:27:35;;;;;;;3.37;2.00;;;11.20;82.60;;;;;;5014291;28;20543;-73
2022/12/24 09:30:02;;;;;;;7.30;2.70;;;11.30;83.20;;;;;;5013815;28;20449;-73
2022/12/24 09:32:29;;;;;;;4.90;2.30;;;11.30;82.40;;;;;;5016826;28;21059;-74
2022/12/24 09:34:56;;;;;;;5.27;2.30;;;11.20;82.00;;;;;;5017219;28;20571;-74
2022/12/24 09:37:22;;;;;;;5.70;2.40;;;11.20;82.40;;;;;;5017234;28;20453;-73
2022/12/24 09:39:49;;;;;;;3.23;2.00;;;11.20;83.00;;;;;;5017084;28;20867;-73
2022/12/24 09:42:27;;;;;;;4.00;2.27;;;11.30;82.30;;;;;;5017002;28;20465;-72
2022/12/24 09:45:00;;;;;;;3.77;2.03;;;11.30;81.70;;;;;;5017026;28;20433;-72
2022/12/24 09:47:31;;;;;;;6.43;2.60;;;11.50;81.20;;;;;;5016957;28;20432;-72
2022/12/24 09:50:01;;;;;;;2.60;1.77;;;11.60;81.20;;;;;;5016917;28;20436;-74
2022/12/24 09:52:33;;;;;;;4.10;2.33;;;11.70;79.80;;;;;;5016445;28;21000;-73
2022/12/24 09:55:06;;;;;;;6.50;2.27;;;11.80;80.50;;;;;;5016914;28;20888;-73
2022/12/24 09:57:38;;;;;;;2.70;1.80;;;11.80;79.80;;;;;;5016777;28;20441;-74
2022/12/24 10:00:18;;;;;;;6.07;2.63;;;11.80;79.90;;;;;;5016711;28;20487;-74
2022/12/24 10:02:45;;;;;;;7.70;2.33;;;11.90;80.20;;;;;;5016271;28;20502;-73
2022/12/24 10:05:14;;;;;;;4.53;1.93;;;11.90;80.10;;;;;;5016305;28;20853;-73
2022/12/24 10:07:49;;;;;;;3.00;1.90;;;12.00;81.00;;;;;;5016659;28;20535;-73
2022/12/24 10:10:25;;;;;;;5.87;2.07;;;12.00;80.20;;;;;;5016785;28;20520;-74
2022/12/24 10:13:01;;;;;;;3.87;2.33;;;12.20;80.80;;;;;;5016662;28;20454;-74
2022/12/24 10:15:35;;;;;;;3.73;1.90;;;12.40;80.10;;;;;;5017131;28;20432;-72
2022/12/24 10:18:20;;;;;;;3.80;2.20;;;12.40;80.00;;;;;;5016526;28;20464;-72
2022/12/24 10:20:57;;;;;;;3.70;2.30;;;12.60;78.90;;;;;;5016364;28;20939;-71
2022/12/24 10:23:28;;;;;;;4.03;2.47;;;12.60;79.30;;;;;;5016505;28;20424;-71
2022/12/24 10:26:06;;;;;;;4.57;1.80;;;12.80;78.20;;;;;;5016334;28;20456;-71
2022/12/24 10:28:42;;;;;;;3.87;2.00;;;12.60;77.40;;;;;;5016268;28;20488;-72
2022/12/24 10:31:11;;;;;;;4.33;2.40;;;12.60;77.80;;;;;;5016057;28;20538;-71
2022/12/24 10:33:41;;;;;;;7.03;2.50;;;12.60;78.00;;;;;;5016147;28;20454;-71
2022/12/24 10:36:14;;;;;;;5.17;2.33;;;12.70;78.90;;;;;;5016163;28;20444;-70
2022/12/24 10:38:41;;;;;;;3.90;2.43;;;12.90;78.30;;;;;;5016169;28;20471;-71
2022/12/24 10:41:08;;;;;;;4.07;2.17;;;12.90;76.80;;;;;;5015761;28;20511;-71
2022/12/24 10:43:37;;;;;;;5.20;2.47;;;12.90;76.70;;;;;;5015976;28;20449;-71
2022/12/24 10:46:08;;;;;;;4.17;2.20;;;12.80;77.80;;;;;;5015920;28;20448;-70
2022/12/24 10:48:43;;;;;;;3.50;2.23;;;12.50;78.00;;;;;;5015920;28;20543;-71
2022/12/24 10:51:17;;;;;;;6.27;2.50;;;12.50;78.20;;;;;;5015708;28;20480;-72
2022/12/24 10:53:48;;;;;;;3.93;2.53;;;12.50;79.50;;;;;;5015805;28;20436;-71
2022/12/24 10:56:17;;;;;;;5.30;2.50;;;12.70;78.90;;;;;;5015754;28;20437;-71
2022/12/24 10:58:45;;;;;;;5.93;3.40;;;12.90;78.20;;;;;;5015696;28;20498;-73
2022/12/24 11:01:13;;;;;;;4.70;2.33;;;13.00;78.20;;;;;;5015439;28;20476;-72
2022/12/24 11:03:41;;;;;;;6.73;2.47;;;13.20;78.30;;;;;;5015898;28;20433;-72
2022/12/24 11:06:11;;;;;;;3.70;1.90;;;13.10;76.20;;;;;;5015599;28;20542;-71
2022/12/24 11:08:40;;;;;;;4.43;2.37;;;13.30;77.30;;;;;;5015192;28;20818;-72
2022/12/24 11:11:09;;;;;;;3.83;2.60;;;13.20;76.10;;;;;;5015341;28;20538;-71
2022/12/24 11:13:38;;;;;;;3.83;2.20;;;13.20;75.80;;;;;;5015366;28;20451;-70
2022/12/24 11:16:07;;;;;;;6.30;2.10;;;13.20;76.90;;;;;;5014938;28;20556;-69
2022/12/24 11:18:38;;;;;;;4.17;2.20;;;12.90;76.30;;;;;;5015048;28;20945;-70
2022/12/24 11:21:06;;;;;;;6.30;3.10;;;12.80;77.30;;;;;;5015163;28;20510;-69
2022/12/24 11:23:33;;;;;;;5.23;2.53;;;12.60;77.40;;;;;;5015174;28;20459;-70
2022/12/24 11:26:00;;;;;;;4.17;1.73;;;12.40;78.70;;;;;;5015147;28;20444;-72
2022/12/24 11:28:29;;;;;;;7.30;3.20;;;12.40;78.70;;;;;;5015269;28;20475;-71
2022/12/24 11:31:01;;;;;;;7.30;2.20;;;12.40;79.50;;;;;;5014943;28;20523;-72
2022/12/24 11:33:29;;;;;;;5.80;2.43;;;12.40;79.30;;;;;;5015130;28;20429;-71
2022/12/24 11:36:06;;;;;;;6.47;2.70;;;12.40;78.80;;;;;;5014643;28;20494;-71
2022/12/24 11:38:34;;;;;;;4.53;2.23;;;12.30;78.70;;;;;;5021924;28;20421;-72
2022/12/24 11:41:07;;;;;;;5.10;2.07;;;12.40;78.60;;;;;;5037456;28;20515;-72
2022/12/24 11:43:57;;;;;;;5.20;2.70;;;12.50;79.40;;;;;;5018573;28;20785;-73
2022/12/24 11:46:37;;;;;;;5.03;2.50;;;12.60;78.70;;;;;;5015518;28;20425;-73
2022/12/24 11:49:24;;;;;;;4.43;2.07;;;12.60;78.70;;;;;;5014589;28;20903;-73
2022/12/24 11:52:24;;;;;;;7.40;2.13;;;12.80;78.60;;;;;;5014824;28;20541;-73
2022/12/24 11:55:05;;;;;;;8.67;2.10;;;12.90;77.70;;;;;;5012248;28;20464;-73
2022/12/24 11:57:43;;;;;;;5.10;2.60;;;12.90;77.60;;;;;;5015903;28;20437;-73
2022/12/24 12:00:11;;;;;;;6.73;2.80;;;13.00;77.80;;;;;;5015261;28;20972;-73
2022/12/24 12:02:41;;;;;;;4.60;2.20;;;13.00;77.70;;;;;;5014642;28;20563;-73
2022/12/24 12:05:11;;;;;;;6.33;2.17;;;13.00;77.40;;;;;;5014905;28;20444;-73
2022/12/24 12:07:38;;;;;;;4.53;2.30;;;13.10;76.80;;;;;;5015606;28;20448;-73
2022/12/24 12:10:15;;;;;;;6.00;2.30;;;13.30;76.20;;;;;;5015466;28;20484;-73
2022/12/24 12:12:45;;;;;;;3.60;2.10;;;13.30;76.10;;;;;;5016398;28;20515;-73
2022/12/24 12:15:14;;;;;;;5.93;1.93;;;13.50;75.20;;;;;;5016053;28;20449;-73
2022/12/24 12:17:46;;;;;;;4.33;2.10;;;13.90;75.70;;;;;;5016614;28;20455;-73
2022/12/24 12:20:17;;;;;;;3.10;2.30;;;14.30;74.90;;;;;;5017249;28;20479;-71
2022/12/24 12:22:51;;;;;;;2.80;1.97;;;14.60;73.70;;;;;;5016972;28;20471;-72
2022/12/24 12:25:25;;;;;;;5.07;2.10;;;15.00;72.80;;;;;;5015749;28;20444;-71
2022/12/24 12:27:55;;;;;;;3.77;1.87;;;15.50;70.00;;;;;;5017409;28;20517;-71
2022/12/24 12:30:24;;;;;;;4.87;2.50;;;16.50;67.50;;;;;;5018291;28;20448;-70
2022/12/24 12:32:57;;;;;;;2.80;1.83;;;18.40;64.00;;;;;;5017875;28;20480;-72
2022/12/24 12:35:26;;;;;;;3.03;2.00;;;20.10;58.10;;;;;;5018197;28;20436;-72
2022/12/24 12:37:58;;;;;;;4.30;2.17;;;21.80;55.70;;;;;;5018098;28;20833;-72
2022/12/24 12:40:39;;;;;;;4.33;2.03;;;21.90;53.10;;;;;;5019279;28;20449;-71
2022/12/24 12:43:15;;;;;;;3.57;2.00;;;21.20;53.90;;;;;;5017541;28;20440;-72
2022/12/24 12:45:52;;;;;;;3.70;2.00;;;21.70;53.80;;;;;;5018595;28;20432;-73
2022/12/24 12:48:39;;;;;;;4.40;2.00;;;22.40;52.10;;;;;;5020590;28;20782;-74
2022/12/24 12:51:08;;;;;;;3.17;1.77;;;23.60;49.70;;;;;;5021237;28;20457;-73
2022/12/24 12:53:51;;;;;;;4.57;2.10;;;22.40;51.10;;;;;;5020774;28;21016;-73
2022/12/24 12:56:29;;;;;;;4.07;2.40;;;21.60;52.90;;;;;;5020760;28;20824;-73
2022/12/24 12:59:02;;;;;;;5.30;2.43;;;20.20;55.20;;;;;;5013759;28;20428;-73
2022/12/24 13:01:39;;;;;;;3.83;2.30;;;19.70;56.00;;;;;;5013701;28;20488;-73
2022/12/24 13:04:56;;;;;;;3.90;2.73;;;18.70;58.90;;;;;;5013562;28;20482;-73
2022/12/24 13:07:51;;;;;;;7.47;4.37;;;18.20;60.10;;;;;;5022175;28;20413;-73
2022/12/24 13:10:55;;;;;;;6.13;3.67;;;18.30;60.40;;;;;;5014821;28;20449;-73
2022/12/24 13:13:47;;;;;;;4.00;2.90;;;19.30;59.00;;;;;;5022744;28;20487;-74
2022/12/24 13:16:36;;;;;;;4.63;3.33;;;20.30;56.70;;;;;;5022430;28;20540;-76
2022/12/24 13:19:16;;;;;;;3.83;1.73;;;21.60;54.50;;;;;;5021406;28;20445;-73
2022/12/24 13:21:47;;;;;;;5.07;2.40;;;22.40;49.90;;;;;;5018147;28;20526;-71
2022/12/24 13:24:17;;;;;;;5.30;2.70;;;21.20;53.40;;;;;;5013515;28;20460;-72
2022/12/24 13:27:00;;;;;;;5.73;2.23;;;21.00;52.80;;;;;;5013937;28;20535;-75
2022/12/24 13:29:41;;;;;;;5.40;2.10;;;20.70;53.50;;;;;;5013625;28;20470;-74
2022/12/24 13:32:50;;;;;;;7.20;3.00;;;20.70;53.60;;;;;;5013451;28;20561;-73
2022/12/24 13:35:29;;;;;;;2.57;1.93;;;20.70;54.00;;;;;;5013555;28;20440;-75
2022/12/24 13:38:30;;;;;;;5.67;3.13;;;20.50;53.90;;;;;;5013389;28;20444;-73
2022/12/24 13:41:16;;;;;;;3.73;2.20;;;19.90;55.80;;;;;;5013500;28;20464;-74
2022/12/24 13:44:14;;;;;;;3.73;1.90;;;19.10;56.10;;;;;;5013000;28;20457;-74
2022/12/24 13:47:05;;;;;;;3.10;1.87;;;18.50;57.00;;;;;;5013545;28;20429;-74
2022/12/24 13:49:35;;;;;;;7.17;2.80;;;18.10;58.10;;;;;;4996902;28;20518;-74
2022/12/24 13:52:18;;;;;;;4.40;2.20;;;17.70;59.50;;;;;;5013138;28;20591;-75
2022/12/24 13:54:49;;;;;;;4.87;2.43;;;17.40;60.00;;;;;;5013306;28;20520;-74
2022/12/24 13:57:29;;;;;;;3.63;2.17;;;17.10;61.70;;;;;;5013235;28;20429;-75
2022/12/24 13:59:59;;;;;;;3.60;1.90;;;16.60;62.30;;;;;;5012913;28;20926;-75
2022/12/24 14:02:33;;;;;;;6.07;2.33;;;16.20;63.80;;;;;;5012878;28;20562;-75
2022/12/24 14:05:05;;;;;;;5.90;2.20;;;15.90;64.40;;;;;;5013342;28;20851;-75
2022/12/24 14:07:33;;;;;;;7.70;2.87;;;15.70;65.50;;;;;;5012805;28;20914;-74
2022/12/24 14:10:00;;;;;;;5.57;2.07;;;15.50;65.50;;;;;;5013221;28;20445;-74
2022/12/24 14:12:33;;;;;;;4.97;2.40;;;15.10;66.90;;;;;;5012521;28;20836;-74
2022/12/24 14:15:43;;;;;;;3.90;2.43;;;14.60;67.60;;;;;;5013946;28;20479;-74
2022/12/24 14:18:17;;;;;;;6.57;2.87;;;14.50;67.80;;;;;;5016380;28;20456;-73
2022/12/24 14:20:48;;;;;;;5.03;2.43;;;14.50;68.90;;;;;;5016140;28;21040;-73
2022/12/24 14:23:33;;;;;;;4.70;2.17;;;14.60;68.70;;;;;;5016646;28;20519;-73
2022/12/24 14:26:01;;;;;;;5.33;2.20;;;14.70;68.80;;;;;;5016456;28;20440;-73
2022/12/24 14:28:35;;;;;;;4.67;2.23;;;14.70;68.20;;;;;;5016494;28;20444;-73
2022/12/24 14:31:03;;;;;;;4.67;2.33;;;14.50;69.00;;;;;;5016212;28;20474;-72
2022/12/24 14:33:32;;;;;;;5.23;2.40;;;14.40;70.00;;;;;;5016151;28;20492;-73
2022/12/24 14:36:00;;;;;;;4.80;2.30;;;14.20;70.70;;;;;;5015800;28;21004;-73
2022/12/24 14:38:29;;;;;;;3.97;2.80;;;13.90;71.70;;;;;;5016126;28;20448;-73
2022/12/24 14:41:02;;;;;;;6.40;2.50;;;13.90;72.30;;;;;;5016108;28;20522;-73
2022/12/24 14:43:44;;;;;;;4.80;3.00;;;13.90;72.70;;;;;;5016124;28;20433;-73
2022/12/24 14:46:19;;;;;;;5.00;2.47;;;14.00;72.40;;;;;;5016169;28;20436;-73
2022/12/24 14:48:53;;;;;;;4.40;2.60;;;13.70;73.70;;;;;;5017151;28;20433;-73
2022/12/24 14:51:25;;;;;;;4.20;2.87;;;13.80;73.60;;;;;;5015775;28;20846;-73
2022/12/24 14:54:15;;;;;;;4.47;3.07;;;13.80;73.40;;;;;;5015952;28;20469;-73
2022/12/24 14:56:41;;;;;;;4.43;2.90;;;13.80;73.60;;;;;;5015904;28;20432;-73
2022/12/24 14:59:15;;;;;;;7.27;3.07;;;13.90;73.50;;;;;;5015868;28;20510;-73
2022/12/24 15:01:42;;;;;;;4.47;2.57;;;13.90;73.50;;;;;;5015489;28;20480;-73
2022/12/24 15:04:18;;;;;;;4.87;3.23;;;14.00;73.40;;;;;;5015795;28;20445;-73
2022/12/24 15:06:48;;;;;;;4.67;2.20;;;14.00;73.50;;;;;;5015800;28;20432;-73
2022/12/24 15:09:18;;;;;;;8.50;2.93;;;14.00;73.20;;;;;;5019209;28;20934;-73
2022/12/24 15:11:46;;;;;;;6.80;2.97;;;14.10;73.40;;;;;;5025106;28;20474;-73
2022/12/24 15:14:14;;;;;;;5.97;3.00;;;14.10;73.50;;;;;;5022691;28;20480;-73
2022/12/24 15:16:43;;;;;;;5.40;3.13;;;14.10;73.30;;;;;;5022656;28;20434;-72
2022/12/24 15:19:24;;;;;;;4.20;3.20;;;14.10;73.80;;;;;;5022935;28;20463;-73
2022/12/24 15:21:52;;;;;;;4.13;3.00;;;14.00;74.20;;;;;;5021026;28;20985;-73
2022/12/24 15:24:26;;;;;;;5.00;2.83;;;13.90;73.90;;;;;;5021573;28;20440;-74
2022/12/24 15:26:54;;;;;;;6.73;3.20;;;13.70;74.30;;;;;;5023390;28;20523;-73
2022/12/24 15:29:23;;;;;;;4.90;3.30;;;13.60;74.90;;;;;;5022130;28;20459;-74
2022/12/24 15:31:54;;;;;;;4.70;2.60;;;13.50;75.10;;;;;;5023224;28;20472;-74
2022/12/24 15:34:28;;;;;;;6.40;2.50;;;13.50;74.90;;;;;;5022374;28;21043;-73
2022/12/24 15:37:03;;;;;;;5.23;2.40;;;13.30;74.70;;;;;;5022564;28;20429;-73
2022/12/24 15:39:30;;;;;;;6.53;2.60;;;13.20;75.60;;;;;;5021268;28;20902;-73
2022/12/24 15:42:17;;;;;;;3.83;2.37;;;13.30;75.70;;;;;;5021642;28;20568;-73
2022/12/24 15:44:59;;;;;;;4.53;2.80;;;13.20;75.70;;;;;;5021769;28;20483;-73
2022/12/24 15:47:29;;;;;;;4.80;3.00;;;13.20;75.80;;;;;;5023338;28;20456;-73
2022/12/24 15:49:57;;;;;;;7.07;2.40;;;13.10;75.80;;;;;;5023960;28;20516;-73
2022/12/24 15:52:26;;;;;;;4.40;2.20;;;13.00;76.30;;;;;;5024868;28;20524;-74
2022/12/24 15:54:53;;;;;;;5.13;2.63;;;13.00;76.60;;;;;;5024644;28;20453;-73
2022/12/24 15:57:25;;;;;;;5.40;3.00;;;13.00;76.50;;;;;;5023475;28;20448;-73
2022/12/24 15:59:54;;;;;;;5.57;2.97;;;13.10;76.60;;;;;;5024253;28;20502;-73
2022/12/24 16:02:33;;;;;;;6.03;2.90;;;13.20;76.60;;;;;;5022896;28;20477;-73
2022/12/24 16:05:29;;;;;;;4.93;2.70;;;13.20;76.40;;;;;;5022634;28;20429;-73
2022/12/24 16:08:07;;;;;;;7.73;3.80;;;13.30;76.30;;;;;;5021796;28;20439;-73
2022/12/24 16:10:37;;;;;;;5.17;3.67;;;13.30;76.10;;;;;;5021308;28;20759;-72
2022/12/24 16:13:14;;;;;;;6.17;3.17;;;13.30;76.10;;;;;;5021630;28;20485;-73
2022/12/24 16:15:48;;;;;;;6.43;2.50;;;13.40;76.10;;;;;;5021975;28;20443;-73
2022/12/24 16:18:23;;;;;;;7.23;3.23;;;13.40;76.10;;;;;;5023591;28;20416;-72
2022/12/24 16:20:52;;;;;;;4.97;2.57;;;13.40;76.20;;;;;;5022998;28;20476;-74
2022/12/24 16:23:21;;;;;;;5.60;2.83;;;13.40;76.20;;;;;;5023308;28;20456;-74
2022/12/24 16:25:48;;;;;;;2.93;2.00;;;13.40;76.40;;;;;;5022456;28;20437;-73
2022/12/24 16:28:15;;;;;;;4.53;2.47;;;13.40;76.50;;;;;;5022920;28;20448;-73
2022/12/24 16:30:45;;;;;;;4.13;2.73;;;13.30;76.50;;;;;;5022212;28;21005;-73
2022/12/24 16:33:15;;;;;;;3.90;2.70;;;13.30;76.80;;;;;;5023106;28;20492;-73
2022/12/24 16:35:42;;;;;;;4.07;3.23;;;13.20;77.10;;;;;;5022331;28;20440;-73
2022/12/24 16:38:12;;;;;;;4.70;3.20;;;13.20;77.20;;;;;;5022235;28;20869;-74
2022/12/24 16:40:39;;;;;;;4.70;3.00;;;13.20;77.40;;;;;;5021423;28;20460;-74
2022/12/24 16:45:50;;;;;;;5.00;3.87;;;13.20;77.30;;;;;;5022286;28;20416;-73
2022/12/24 16:48:21;;;;;;;5.30;4.07;;;13.20;77.50;;;;;;5021249;28;20455;-73
2022/12/24 16:50:48;;;;;;;8.17;4.23;;;13.20;77.60;;;;;;5022238;28;20996;-74
2022/12/24 16:53:16;;;;;;;4.43;2.67;;;13.10;77.70;;;;;;5021667;28;20491;-74
2022/12/24 16:55:44;;;;;;;6.87;3.80;;;13.10;77.80;;;;;;5020848;28;20946;-73
2022/12/24 16:58:12;;;;;;;3.90;3.50;;;13.10;77.60;;;;;;5022364;28;20448;-73
2022/12/24 17:00:39;;;;;;;6.50;3.67;;;13.10;77.80;;;;;;5021672;28;20444;-74
2022/12/24 17:03:06;;;;;;;5.20;3.33;;;13.00;77.80;;;;;;5021505;28;20467;-76
2022/12/24 17:05:34;;;;;;;4.87;3.37;;;13.00;77.80;;;;;;5021195;28;20807;-74
2022/12/24 17:08:01;;;;;;;4.70;2.83;;;12.90;78.10;;;;;;5020796;28;20457;-74
2022/12/24 17:10:29;;;;;;;4.30;3.40;;;12.90;78.10;;;;;;5021430;28;20452;-74
2022/12/24 17:12:56;;;;;;;5.30;3.30;;;12.80;77.90;;;;;;5020621;28;20495;-73